ADDS METAR Data INFO
IDs: Format: Raw Decoded Include TAF

Data at: 2110 UTC 22 Oct 2017

KFQD 222045Z AUTO 12005KT 10SM CLR 24/13 A3026 RMK AO2 T02390131
KFQD 222025Z AUTO 19009G14KT 150V210 10SM SCT060 24/13 A3026 RMK AO2 T02360133
KFQD 222005Z AUTO 12006KT 10SM SCT042 SCT060 24/13 A3027 RMK AO2 T02350133
KFQD 221945Z AUTO 19009KT 140V210 10SM SCT050 23/14 A3027 RMK AO2 T02250135
KFQD 221925Z AUTO 18008KT 130V200 10SM BKN050 22/14 A3028 RMK AO2 T02210137
KFQD 221905Z AUTO 20011KT 10SM SCT037 SCT046 BKN050 23/13 A3028 RMK AO2 T02250134
KFQD 221845Z AUTO 10003KT 10SM SCT035 BKN046 BKN050 23/14 A3028 RMK AO2 T02280139
KFQD 221825Z AUTO 12007KT 10SM SCT033 SCT046 OVC050 23/14 A3029 RMK AO2 T02250143
KFQD 221805Z AUTO 17005KT 10SM SCT034 SCT040 OVC050 22/14 A3029 RMK AO2 T02220143
KFQD 221745Z AUTO 18008KT 140V200 10SM SCT034 SCT040 OVC050 22/14 A3031 RMK AO2 T02150140
KFQD 221725Z AUTO 18006KT 10SM SCT032 SCT039 OVC050 21/14 A3032 RMK AO2 T02140139
KFQD 221705Z AUTO 17009KT 120V200 10SM BKN030 OVC050 22/14 A3034 RMK AO2 T02170142
KFQD 221645Z AUTO 19008KT 130V200 10SM SCT030 OVC050 22/15 A3034 RMK AO2 T02160146
KFQD 221625Z AUTO 21005KT 10SM SCT027 BKN050 21/15 A3035 RMK AO2 T02100145
KFQD 221605Z AUTO 10003KT 10SM SCT050 21/15 A3035 RMK AO2 T02140147
KFQD 221545Z AUTO 00000KT 10SM BKN050 21/15 A3035 RMK AO2 T02090149
KFQD 221525Z AUTO 15004KT 10SM CLR 20/14 A3036 RMK AO2 T01980142
KFQD 221505Z AUTO 00000KT 10SM CLR 20/14 A3037 RMK AO2 T01980139
KFQD 221445Z AUTO 00000KT 10SM SCT034 20/14 A3038 RMK AO2 T01950138
KFQD 221425Z AUTO 00000KT 10SM BKN034 18/13 A3038 RMK AO2 T01790130
KFQD 221405Z AUTO 00000KT 10SM SCT034 17/14 A3038 RMK AO2 T01690137
KFQD 221345Z AUTO 00000KT 10SM SCT028 SCT033 SCT040 16/13 A3038 RMK AO2 T01550134
KFQD 221325Z AUTO 00000KT 10SM SCT028 SCT033 SCT040 13/13 A3038 RMK AO2 T01290129
KFQD 221305Z AUTO 00000KT 10SM SCT027 BKN033 BKN039 12/12 A3037 RMK AO2 T01160116
KFQD 221245Z AUTO 00000KT 10SM BKN025 BKN033 11/11 A3037 RMK AO2 T01120112
KFQD 221225Z AUTO 00000KT 10SM SCT023 10/10 A3036 RMK AO2 T01010101
KFQD 221205Z AUTO 00000KT 10SM SCT023 10/10 A3035 RMK AO2 T00950095
KFQD 221145Z AUTO 00000KT 10SM CLR 10/10 A3034 RMK AO2 T00960096
KFQD 221125Z AUTO 00000KT 10SM CLR 10/10 A3034 RMK AO2 T00950095
KFQD 221105Z AUTO 32003KT 10SM CLR 09/09 A3034 RMK AO2 T00920092
KFQD 221045Z AUTO 31003KT 10SM CLR 09/09 A3033 RMK AO2 T00930093
KFQD 221025Z AUTO 00000KT 10SM CLR 10/10 A3033 RMK AO2 T00970097
KFQD 221005Z AUTO 31003KT 10SM CLR 10/10 A3033 RMK AO2 T00950095
KFQD 220945Z AUTO 00000KT 10SM CLR 10/10 A3033 RMK AO2 T00970097
KFQD 220925Z AUTO 00000KT 10SM CLR 10/10 A3032 RMK AO2 T01020102
KFQD 220905Z AUTO 00000KT 10SM CLR 10/10 A3033 RMK AO2 T01000100
KFQD 220845Z AUTO 00000KT 10SM CLR 11/11 A3032 RMK AO2 T01080108
KFQD 220825Z AUTO 00000KT 10SM CLR 10/10 A3033 RMK AO2 T00990099
KFQD 220805Z AUTO 00000KT 10SM CLR 11/11 A3032 RMK AO2 T01050105
KFQD 220745Z AUTO 00000KT 10SM CLR 11/11 A3033 RMK AO2 T01070107
KFQD 220725Z AUTO 00000KT 10SM CLR 11/11 A3033 RMK AO2 T01050105
KFQD 220705Z AUTO 00000KT 10SM CLR 11/11 A3033 RMK AO2 T01060106
KFQD 220645Z AUTO 31003KT 10SM CLR 11/11 A3034 RMK AO2 T01100110
KFQD 220625Z AUTO 00000KT 10SM CLR 11/11 A3033 RMK AO2 T01100110
KFQD 220605Z AUTO 00000KT 10SM CLR 11/11 A3034 RMK AO2 T01100110
KFQD 220545Z AUTO 00000KT 7SM CLR 12/12 A3034 RMK AO2 T01170117
KFQD 220525Z AUTO 00000KT 10SM CLR 12/12 A3034 RMK AO2 T01150115
KFQD 220505Z AUTO 00000KT 10SM CLR 12/12 A3034 RMK AO2 T01210121
KFQD 220445Z AUTO 00000KT 10SM CLR 12/12 A3034 RMK AO2 T01200120
KFQD 220425Z AUTO 00000KT 10SM CLR 12/12 A3034 RMK AO2 T01210121
KFQD 220405Z AUTO 00000KT 10SM CLR 13/13 A3034 RMK AO2 T01280128
KFQD 220345Z AUTO 00000KT 10SM CLR 14/12 A3034 RMK AO2 T01420121
KFQD 220325Z AUTO 00000KT 10SM CLR 13/13 A3034 RMK AO2 T01340132
KFQD 220305Z AUTO 00000KT 10SM CLR 13/13 A3034 RMK AO2 T01320132
KFQD 220245Z AUTO 00000KT 10SM CLR 13/13 A3034 RMK AO2 T01310131
KFQD 220225Z AUTO 00000KT 10SM CLR 14/14 A3035 RMK AO2 T01350135
KFQD 220205Z AUTO 00000KT 10SM CLR 14/14 A3034 RMK AO2 T01360136
KFQD 220145Z AUTO 00000KT 10SM CLR 14/14 A3034 RMK AO2 T01400140
KFQD 220125Z AUTO 00000KT 10SM CLR 15/14 A3034 RMK AO2 T01450137
KFQD 220105Z AUTO 00000KT 10SM CLR 15/14 A3034 RMK AO2 T01490139
KFQD 220045Z AUTO 00000KT 10SM CLR 16/14 A3034 RMK AO2 T01600135
KFQD 220025Z AUTO 00000KT 10SM CLR 16/13 A3034 RMK AO2 T01580128
KFQD 220005Z AUTO 00000KT 10SM CLR 18/13 A3034 RMK AO2 T01750126
KFQD 212345Z AUTO 00000KT 10SM CLR 18/11 A3034 RMK AO2 T01790113
KFQD 212325Z AUTO 00000KT 10SM CLR 18/12 A3033 RMK AO2 T01760119
KFQD 212305Z AUTO 00000KT 10SM CLR 19/12 A3033 RMK AO2 T01920122
KFQD 212245Z AUTO 00000KT 10SM CLR 20/12 A3033 RMK AO2 T01990116
KFQD 212225Z AUTO 00000KT 10SM CLR 21/13 A3033 RMK AO2 T02050128
KFQD 212205Z AUTO 00000KT 10SM CLR 22/12 A3032 RMK AO2 T02170120
KFQD 212145Z AUTO 00000KT 10SM CLR 23/10 A3031 RMK AO2 T02290097
KFQD 212125Z AUTO 00000KT 10SM CLR 23/09 A3031 RMK AO2 T02320090
KFQD 212105Z AUTO 12003KT 10SM CLR 24/09 A3031 RMK AO2 T02370092
KFQD 212045Z AUTO 15003KT 10SM CLR 24/08 A3031 RMK AO2 T02390083
KFQD 212025Z AUTO 00000KT 10SM CLR 24/08 A3031 RMK AO2 T02360077
KFQD 212005Z AUTO 13003KT 10SM CLR 24/07 A3031 RMK AO2 T02370073
KFQD 211945Z AUTO 00000KT 10SM CLR 24/08 A3031 RMK AO2 T02350084
KFQD 211925Z AUTO 00000KT 10SM CLR 24/08 A3031 RMK AO2 T02410078
KFQD 211905Z AUTO 15005KT 10SM CLR 24/09 A3031 RMK AO2 T02440090
KFQD 211845Z AUTO 13004KT 10SM CLR 24/08 A3031 RMK AO2 T02360083
KFQD 211825Z AUTO 10005KT 10SM CLR 24/08 A3031 RMK AO2 T02380082
KFQD 211805Z AUTO 19009KT 10SM CLR 24/09 A3032 RMK AO2 T02370088
KFQD 211745Z AUTO 00000KT 10SM CLR 24/10 A3032 RMK AO2 T02400095
KFQD 211725Z AUTO 00000KT 10SM CLR 23/10 A3034 RMK AO2 T02330102
KFQD 211705Z AUTO 26003KT 10SM CLR 23/10 A3034 RMK AO2 T02340098
KFQD 211645Z AUTO 00000KT 10SM CLR 23/09 A3035 RMK AO2 T02250094
KFQD 211625Z AUTO 17005KT 10SM CLR 22/10 A3035 RMK AO2 T02180095
KFQD 211605Z AUTO 00000KT 10SM CLR 22/10 A3036 RMK AO2 T02150099
KFQD 211545Z AUTO 00000KT 10SM CLR 21/11 A3036 RMK AO2 T02110108
KFQD 211525Z AUTO 00000KT 10SM CLR 20/12 A3036 RMK AO2 T02020117
KFQD 211505Z AUTO 32005KT 10SM CLR 19/11 A3036 RMK AO2 T01920108
KFQD 211445Z AUTO 32003KT 10SM CLR 19/11 A3036 RMK AO2 T01900112
KFQD 211425Z AUTO 00000KT 10SM CLR 17/12 A3036 RMK AO2 T01740118
KFQD 211405Z AUTO 00000KT 10SM CLR 17/11 A3036 RMK AO2 T01670109
KFQD 211345Z AUTO 00000KT 10SM CLR 15/11 A3036 RMK AO2 T01530112
KFQD 211325Z AUTO 00000KT 10SM CLR 14/11 A3036 RMK AO2 T01350111
KFQD 211305Z AUTO 00000KT 10SM CLR 12/11 A3035 RMK AO2 T01220112
KFQD 211245Z AUTO 00000KT 10SM CLR 11/10 A3034 RMK AO2 T01070097
KFQD 211225Z AUTO 00000KT 10SM CLR 10/09 A3033 RMK AO2 T00950093
KFQD 211205Z AUTO 00000KT 10SM CLR 08/08 A3033 RMK AO2 T00810081
KFQD 211145Z AUTO 31005KT 10SM CLR 07/07 A3032 RMK AO2 T00680068
KFQD 211125Z AUTO 30004KT 10SM CLR 07/07 A3032 RMK AO2 T00740074
KFQD 211105Z AUTO 30004KT 10SM CLR 07/07 A3031 RMK AO2 T00690069
KFQD 211045Z AUTO 29003KT 10SM CLR 07/07 A3031 RMK AO2 T00710071
KFQD 211025Z AUTO 00000KT 10SM CLR 08/08 A3030 RMK AO2 T00810081
KFQD 211005Z AUTO 00000KT 10SM CLR 08/08 A3029 RMK AO2 T00770077
KFQD 210945Z AUTO 00000KT 10SM CLR 08/08 A3029 RMK AO2 T00810081
KFQD 210925Z AUTO 32003KT 10SM CLR 09/09 A3029 RMK AO2 T00860086